createdAt,value
2023-02-12T00:02:25.447Z,-0.10
2023-02-12T00:04:52.262Z,-0.10
2023-02-12T00:07:18.981Z,0.00
2023-02-12T00:09:45.679Z,-0.10
2023-02-12T00:12:12.418Z,-0.10
2023-02-12T00:14:39.138Z,-0.30
2023-02-12T00:17:05.910Z,-0.50
2023-02-12T00:19:32.599Z,-0.50
2023-02-12T00:21:59.263Z,-0.40
2023-02-12T00:24:27.120Z,-0.40
2023-02-12T00:26:53.824Z,-0.30
2023-02-12T00:29:20.475Z,-0.30
2023-02-12T00:31:47.234Z,-0.10
2023-02-12T00:34:14.080Z,-0.10
2023-02-12T00:36:40.774Z,-0.10
2023-02-12T00:39:07.420Z,-0.50
2023-02-12T00:41:34.138Z,-0.60
2023-02-12T00:44:00.822Z,-0.80
2023-02-12T00:46:27.644Z,-0.70
2023-02-12T00:48:54.441Z,-0.50
2023-02-12T00:51:21.499Z,-0.50
2023-02-12T00:53:48.216Z,-0.40
2023-02-12T00:56:15.013Z,-0.60
2023-02-12T00:58:41.752Z,-0.70
2023-02-12T01:01:08.542Z,-0.30
2023-02-12T01:03:35.290Z,-0.60
2023-02-12T01:06:02.027Z,-0.60
2023-02-12T01:08:28.760Z,-0.50
2023-02-12T01:11:00.273Z,-0.40
2023-02-12T01:13:27.491Z,-0.50
2023-02-12T01:16:12.685Z,-0.80
2023-02-12T01:18:39.532Z,-0.70
2023-02-12T01:21:13.744Z,-0.70
2023-02-12T01:23:40.893Z,-0.80
2023-02-12T01:26:10.718Z,-0.80
2023-02-12T01:28:38.496Z,-0.70
2023-02-12T01:31:12.585Z,-0.50
2023-02-12T01:33:39.754Z,-0.60
2023-02-12T01:36:06.917Z,-0.90
2023-02-12T01:38:33.678Z,-0.90
2023-02-12T01:41:04.421Z,-0.80
2023-02-12T01:43:31.118Z,-0.70
2023-02-12T01:45:59.466Z,-1.10
2023-02-12T01:48:27.293Z,-1.20
2023-02-12T01:50:54.498Z,-0.90
2023-02-12T01:53:22.295Z,-0.90
2023-02-12T01:55:55.337Z,-1.20
2023-02-12T01:58:23.845Z,-1.10
2023-02-12T02:00:50.710Z,-1.40
2023-02-12T02:03:17.550Z,-1.20
2023-02-12T02:05:56.548Z,-1.10
2023-02-12T02:08:23.803Z,-1.00
2023-02-12T02:10:50.488Z,-1.50
2023-02-12T02:13:35.858Z,-1.60
2023-02-12T02:16:08.355Z,-1.50
2023-02-12T02:18:41.226Z,-1.60
2023-02-12T02:21:20.134Z,-1.50
2023-02-12T02:23:52.874Z,-1.40
2023-02-12T02:26:28.089Z,-1.20
2023-02-12T02:28:54.756Z,-1.20
2023-02-12T02:31:26.509Z,-1.20
2023-02-12T02:33:56.329Z,-1.10
2023-02-12T02:36:35.176Z,-1.20
2023-02-12T02:39:14.650Z,-1.10
2023-02-12T02:42:01.861Z,-0.90
2023-02-12T02:44:31.648Z,-0.90
2023-02-12T02:46:59.223Z,-1.10
2023-02-12T02:49:28.987Z,-1.10
2023-02-12T02:51:59.825Z,-1.20
2023-02-12T02:54:30.860Z,-1.10
2023-02-12T02:57:00.889Z,-1.10
2023-02-12T02:59:31.802Z,-1.10
2023-02-12T03:02:04.874Z,-1.00
2023-02-12T03:04:33.808Z,-1.00
2023-02-12T03:07:09.528Z,-1.00
2023-02-12T03:09:36.194Z,-0.90
2023-02-12T03:12:05.057Z,-1.00
2023-02-12T03:14:33.468Z,-1.20
2023-02-12T03:17:04.124Z,-1.30
2023-02-12T03:19:37.121Z,-1.20
2023-02-12T03:22:09.358Z,-1.10
2023-02-12T03:24:38.881Z,-1.00
2023-02-12T03:27:11.484Z,-1.20
2023-02-12T03:29:38.210Z,-1.10
2023-02-12T03:32:24.859Z,-1.20
2023-02-12T03:35:03.847Z,-1.20
2023-02-12T03:37:35.617Z,-1.30
2023-02-12T03:40:05.331Z,-1.60
2023-02-12T03:42:38.191Z,-1.50
2023-02-12T03:45:10.249Z,-1.40
2023-02-12T03:47:36.905Z,-1.20
2023-02-12T03:50:03.687Z,-1.10
2023-02-12T03:52:30.519Z,-1.50
2023-02-12T03:54:57.562Z,-1.50
2023-02-12T03:57:31.353Z,-1.50
2023-02-12T03:59:59.080Z,-1.40
2023-02-12T04:02:25.830Z,-1.80
2023-02-12T04:04:52.581Z,-1.70
2023-02-12T04:07:19.317Z,-1.70
2023-02-12T04:09:45.983Z,-1.90
2023-02-12T04:12:24.752Z,-1.90
2023-02-12T04:15:03.622Z,-1.90
2023-02-12T04:17:36.495Z,-2.00
2023-02-12T04:20:22.188Z,-1.80
2023-02-12T04:23:03.126Z,-1.80
2023-02-12T04:25:35.882Z,-1.70
2023-02-12T04:28:06.178Z,-2.00
2023-02-12T04:30:40.762Z,-2.10
2023-02-12T04:33:10.616Z,-1.90
2023-02-12T04:35:59.865Z,-1.80
2023-02-12T04:38:34.832Z,-2.10
2023-02-12T04:41:05.247Z,-2.00
2023-02-12T04:43:36.488Z,-2.00
2023-02-12T04:46:07.599Z,-2.00
2023-02-12T04:48:35.482Z,-1.90
2023-02-12T04:51:02.220Z,-2.00
2023-02-12T04:53:28.950Z,-2.00
2023-02-12T04:55:56.011Z,-1.80
2023-02-12T04:58:22.864Z,-1.70
2023-02-12T05:00:49.529Z,-1.70
2023-02-12T05:03:16.243Z,-1.80
2023-02-12T05:05:42.970Z,-1.20
2023-02-12T05:08:09.632Z,-1.20
2023-02-12T05:10:36.325Z,-1.20
2023-02-12T05:13:02.998Z,-1.30
2023-02-12T05:15:29.821Z,-1.40
2023-02-12T05:17:56.594Z,-1.30
2023-02-12T05:20:23.276Z,-1.30
2023-02-12T05:22:53.487Z,-1.20
2023-02-12T05:25:20.299Z,-1.10
2023-02-12T05:27:47.190Z,-1.10
2023-02-12T05:30:14.019Z,-1.20
2023-02-12T05:32:40.803Z,-1.30
2023-02-12T05:35:07.764Z,-1.30
2023-02-12T05:37:36.279Z,-1.20
2023-02-12T05:40:06.244Z,-1.10
2023-02-12T05:42:32.973Z,-1.10
2023-02-12T05:44:59.673Z,-1.00
2023-02-12T05:47:26.524Z,-0.70
2023-02-12T05:49:53.244Z,-0.60
2023-02-12T05:52:19.949Z,-0.40
2023-02-12T05:54:49.002Z,-0.70
2023-02-12T05:57:15.700Z,-0.50
2023-02-12T05:59:42.425Z,-0.60
2023-02-12T06:02:09.125Z,-0.60
2023-02-12T06:04:35.801Z,-0.30
2023-02-12T06:07:02.482Z,-0.10
2023-02-12T06:09:29.248Z,-0.20
2023-02-12T06:11:55.941Z,-0.10
2023-02-12T06:14:22.775Z,0.00
2023-02-12T06:16:50.829Z,0.10
2023-02-12T06:19:18.678Z,-0.10
2023-02-12T06:21:45.566Z,-0.10
2023-02-12T06:24:13.159Z,0.00
2023-02-12T06:26:40.082Z,0.30
2023-02-12T06:29:06.819Z,0.50
2023-02-12T06:31:35.291Z,0.40
2023-02-12T06:34:03.727Z,0.20
2023-02-12T06:36:30.476Z,0.20
2023-02-12T06:38:57.200Z,0.20
2023-02-12T06:41:24.033Z,0.40
2023-02-12T06:43:51.116Z,0.30
2023-02-12T06:46:18.145Z,0.20
2023-02-12T06:48:44.876Z,0.20
2023-02-12T06:51:12.947Z,0.20
2023-02-12T06:53:39.645Z,0.30
2023-02-12T06:56:11.206Z,0.30
2023-02-12T06:58:38.391Z,0.40
2023-02-12T07:01:13.762Z,0.40
2023-02-12T07:03:41.633Z,0.30
2023-02-12T07:06:08.494Z,0.30
2023-02-12T07:08:35.441Z,0.40
2023-02-12T07:11:02.240Z,0.30
2023-02-12T07:13:28.919Z,0.50
2023-02-12T07:15:55.910Z,0.60
2023-02-12T07:18:22.746Z,0.60
2023-02-12T07:20:49.429Z,0.70
2023-02-12T07:23:16.089Z,0.70
2023-02-12T07:25:42.772Z,0.70
2023-02-12T07:28:09.470Z,0.80
2023-02-12T07:30:36.168Z,1.00
2023-02-12T07:33:04.092Z,1.00
2023-02-12T07:35:31.117Z,1.10
2023-02-12T07:37:58.272Z,1.20
2023-02-12T07:40:24.949Z,1.40
2023-02-12T07:42:55.762Z,1.30
2023-02-12T07:45:22.541Z,1.30
2023-02-12T07:47:50.004Z,1.30
2023-02-12T07:50:16.865Z,1.30
2023-02-12T07:52:43.733Z,1.20
2023-02-12T07:55:10.596Z,1.30
2023-02-12T07:57:37.257Z,1.20
2023-02-12T08:00:04.891Z,1.20
2023-02-12T08:02:32.077Z,1.20
2023-02-12T08:04:59.070Z,1.30
2023-02-12T08:07:26.300Z,1.50
2023-02-12T08:09:53.493Z,1.70
2023-02-12T08:12:20.192Z,2.00
2023-02-12T08:14:51.691Z,2.10
2023-02-12T08:17:18.354Z,2.50
2023-02-12T08:19:45.016Z,2.90
2023-02-12T08:22:12.957Z,3.20
2023-02-12T08:24:39.661Z,3.50
2023-02-12T08:27:06.377Z,3.70
2023-02-12T08:29:33.018Z,3.80
2023-02-12T08:32:00.945Z,4.10
2023-02-12T08:34:32.163Z,4.20
2023-02-12T08:36:58.979Z,4.30
2023-02-12T08:39:27.767Z,4.40
2023-02-12T08:41:55.597Z,4.90
2023-02-12T08:44:22.378Z,5.10
2023-02-12T08:46:50.404Z,5.30
2023-02-12T08:49:19.044Z,5.40
2023-02-12T08:51:48.735Z,5.30
2023-02-12T08:54:16.768Z,5.30
2023-02-12T08:56:45.212Z,5.40
2023-02-12T08:59:12.885Z,5.30
2023-02-12T09:01:41.839Z,5.30
2023-02-12T09:04:11.450Z,5.50
2023-02-12T09:06:38.097Z,5.80
2023-02-12T09:09:04.889Z,6.20
2023-02-12T09:11:31.677Z,6.50
2023-02-12T09:13:59.946Z,6.60
2023-02-12T09:16:27.271Z,6.50
2023-02-12T09:18:54.998Z,6.50
2023-02-12T09:21:22.065Z,6.40
2023-02-12T09:23:49.074Z,6.60
2023-02-12T09:26:17.939Z,6.50
2023-02-12T09:28:44.661Z,6.20
2023-02-12T09:31:15.542Z,6.00
2023-02-12T09:33:42.510Z,5.80
2023-02-12T09:36:10.759Z,5.70
2023-02-12T09:38:37.968Z,5.70
2023-02-12T09:41:04.609Z,5.70
2023-02-12T09:43:43.022Z,5.70
2023-02-12T09:46:30.229Z,5.80
2023-02-12T09:48:56.935Z,5.80
2023-02-12T09:51:24.048Z,6.00
2023-02-12T09:54:11.980Z,6.20
2023-02-12T09:56:39.205Z,6.40
2023-02-12T09:59:07.350Z,6.70
2023-02-12T10:01:35.828Z,6.80
2023-02-12T10:04:04.962Z,6.90
2023-02-12T10:06:45.942Z,7.00
2023-02-12T10:09:16.221Z,7.20
2023-02-12T10:12:01.768Z,7.30
2023-02-12T10:14:43.778Z,7.40
2023-02-12T10:17:10.453Z,7.50
2023-02-12T10:19:37.074Z,7.70
2023-02-12T10:22:03.758Z,7.80
2023-02-12T10:24:35.555Z,7.90
2023-02-12T10:27:13.141Z,7.90
2023-02-12T10:29:42.533Z,8.00
2023-02-12T10:32:27.615Z,8.30
2023-02-12T10:34:55.428Z,8.30
2023-02-12T10:37:32.500Z,8.60
2023-02-12T10:40:05.194Z,8.70
2023-02-12T10:42:39.376Z,8.80
2023-02-12T10:45:06.329Z,8.60
2023-02-12T10:47:32.999Z,8.40
2023-02-12T10:50:00.843Z,8.50
2023-02-12T10:52:45.116Z,8.70
2023-02-12T10:55:28.557Z,8.70
2023-02-12T10:57:55.853Z,8.60
2023-02-12T11:00:24.816Z,8.70
2023-02-12T11:03:02.974Z,9.10
2023-02-12T11:05:30.353Z,9.00
2023-02-12T11:07:59.729Z,9.10
2023-02-12T11:10:32.038Z,9.10
2023-02-12T11:12:59.971Z,8.90
2023-02-12T11:15:27.727Z,8.60
2023-02-12T11:17:59.974Z,8.50
2023-02-12T11:20:28.556Z,8.60
2023-02-12T11:22:55.322Z,8.60
2023-02-12T11:25:42.048Z,8.60
2023-02-12T11:28:19.252Z,8.60
2023-02-12T11:30:50.962Z,8.50
2023-02-12T11:33:22.461Z,8.50
2023-02-12T11:35:54.218Z,8.70
2023-02-12T11:38:24.626Z,8.70
2023-02-12T11:40:54.050Z,8.60
2023-02-12T11:43:21.314Z,8.60
2023-02-12T11:45:50.585Z,8.70
2023-02-12T11:48:19.455Z,8.70
2023-02-12T11:50:50.849Z,8.70
2023-02-12T11:53:23.119Z,8.70
2023-02-12T11:55:54.425Z,8.70
2023-02-12T11:58:22.996Z,8.80
2023-02-12T12:01:12.968Z,8.80
2023-02-12T12:03:57.894Z,8.80
2023-02-12T12:06:24.576Z,8.90
2023-02-12T12:09:02.087Z,9.00
2023-02-12T12:11:49.108Z,9.30
2023-02-12T12:14:26.720Z,9.40
2023-02-12T12:17:21.314Z,10.20
2023-02-12T12:20:04.358Z,10.50
2023-02-12T12:22:46.819Z,11.10
2023-02-12T12:25:20.470Z,11.20
2023-02-12T12:28:06.111Z,10.90
2023-02-12T12:30:51.912Z,10.70
2023-02-12T12:33:26.755Z,10.70
2023-02-12T12:36:03.448Z,10.60
2023-02-12T12:38:33.294Z,10.40
2023-02-12T12:41:00.141Z,10.10
2023-02-12T12:43:29.949Z,9.90
2023-02-12T12:45:56.921Z,9.70
2023-02-12T12:48:23.941Z,10.00
2023-02-12T12:51:02.945Z,10.10
2023-02-12T12:53:29.759Z,10.50
2023-02-12T12:56:07.295Z,10.90
2023-02-12T12:58:52.831Z,10.70
2023-02-12T13:01:25.811Z,10.60
2023-02-12T13:03:53.165Z,10.90
2023-02-12T13:06:46.248Z,10.90
2023-02-12T13:09:25.161Z,10.50
2023-02-12T13:12:06.868Z,10.30
2023-02-12T13:14:40.165Z,10.60
2023-02-12T13:17:14.228Z,10.80
2023-02-12T13:19:59.781Z,11.20
2023-02-12T13:22:35.875Z,11.50
2023-02-12T13:25:02.696Z,11.30
2023-02-12T13:27:35.437Z,11.40
2023-02-12T13:30:07.423Z,10.90
2023-02-12T13:32:40.842Z,10.70
2023-02-12T13:35:07.547Z,10.40
2023-02-12T13:37:45.595Z,10.30
2023-02-12T13:40:17.325Z,10.30
2023-02-12T13:42:47.139Z,10.40
2023-02-12T13:45:18.135Z,10.30
2023-02-12T13:47:50.867Z,10.00
2023-02-12T13:50:37.851Z,9.90
2023-02-12T13:53:27.816Z,9.70
2023-02-12T13:55:54.905Z,9.40
2023-02-12T13:58:40.355Z,9.50
2023-02-12T14:01:14.899Z,9.50
2023-02-12T14:03:41.784Z,9.60
2023-02-12T14:06:08.600Z,9.70
2023-02-12T14:08:38.054Z,9.80
2023-02-12T14:11:07.317Z,9.90
2023-02-12T14:13:36.640Z,10.00
2023-02-12T14:16:22.225Z,10.30
2023-02-12T14:18:48.993Z,10.20
2023-02-12T14:21:17.294Z,10.30
2023-02-12T14:23:46.080Z,10.10
2023-02-12T14:26:20.217Z,10.10
2023-02-12T14:28:46.869Z,10.00
2023-02-12T14:31:23.211Z,10.00
2023-02-12T14:33:51.238Z,9.90
2023-02-12T14:36:20.315Z,9.80
2023-02-12T14:38:48.073Z,9.80
2023-02-12T14:41:34.718Z,9.80
2023-02-12T14:44:30.755Z,9.80
2023-02-12T14:46:57.553Z,9.70
2023-02-12T14:49:54.876Z,9.70
2023-02-12T14:52:25.241Z,9.70
2023-02-12T14:55:02.781Z,9.60
2023-02-12T14:57:34.595Z,9.50
2023-02-12T15:00:05.190Z,9.50
2023-02-12T15:02:34.449Z,9.40
2023-02-12T15:05:06.718Z,9.50
2023-02-12T15:07:37.335Z,9.50
2023-02-12T15:10:16.070Z,9.40
2023-02-12T15:12:46.076Z,9.20
2023-02-12T15:15:25.311Z,9.10
2023-02-12T15:17:59.366Z,9.00
2023-02-12T15:20:37.726Z,8.70
2023-02-12T15:23:24.375Z,8.60
2023-02-12T15:25:51.432Z,8.70
2023-02-12T15:28:21.816Z,8.70
2023-02-12T15:30:48.930Z,8.70
2023-02-12T15:33:27.787Z,8.60
2023-02-12T15:35:54.906Z,8.40
2023-02-12T15:38:43.999Z,8.20
2023-02-12T15:41:23.779Z,8.00
2023-02-12T15:43:50.479Z,7.50
2023-02-12T15:46:18.295Z,7.20
2023-02-12T15:48:45.226Z,6.90
2023-02-12T15:51:34.161Z,6.90
2023-02-12T15:54:03.996Z,6.60
2023-02-12T15:56:32.053Z,6.20
2023-02-12T15:59:01.307Z,6.20
2023-02-12T16:01:29.056Z,6.30
2023-02-12T16:03:57.868Z,6.00
2023-02-12T16:06:25.840Z,5.70
2023-02-12T16:09:02.089Z,5.30
2023-02-12T16:11:29.877Z,5.00
2023-02-12T16:13:58.448Z,4.60
2023-02-12T16:16:31.357Z,4.30
2023-02-12T16:19:04.362Z,4.10
2023-02-12T16:21:33.766Z,4.20
2023-02-12T16:24:00.631Z,4.20
2023-02-12T16:26:27.860Z,4.10
2023-02-12T16:28:56.874Z,4.10
2023-02-12T16:31:26.066Z,4.10
2023-02-12T16:33:54.187Z,3.60
2023-02-12T16:36:21.573Z,3.60
2023-02-12T16:38:49.812Z,3.60
2023-02-12T16:41:27.094Z,3.60
2023-02-12T16:43:59.947Z,3.50
2023-02-12T16:46:31.281Z,2.90
2023-02-12T16:49:00.897Z,2.70
2023-02-12T16:51:29.143Z,2.70
2023-02-12T16:53:57.865Z,2.80
2023-02-12T16:56:26.545Z,2.80
2023-02-12T16:58:57.328Z,3.00
2023-02-12T17:01:24.685Z,2.90
2023-02-12T17:03:51.969Z,2.70
2023-02-12T17:06:19.973Z,2.70
2023-02-12T17:08:46.789Z,2.70
2023-02-12T17:11:15.476Z,2.50
2023-02-12T17:13:42.267Z,2.50
2023-02-12T17:16:11.248Z,2.70
2023-02-12T17:18:39.572Z,2.60
2023-02-12T17:21:32.680Z,2.40
2023-02-12T17:23:59.657Z,2.00
2023-02-12T17:26:26.361Z,1.30
2023-02-12T17:28:53.185Z,1.20
2023-02-12T17:31:20.795Z,1.40
2023-02-12T17:33:47.652Z,1.80
2023-02-12T17:36:14.452Z,2.00
2023-02-12T17:38:41.130Z,1.70
2023-02-12T17:41:11.029Z,1.60
2023-02-12T17:43:37.704Z,0.90
2023-02-12T17:46:11.394Z,0.80
2023-02-12T17:48:38.157Z,0.80
2023-02-12T17:51:04.894Z,1.00
2023-02-12T17:53:31.657Z,1.10
2023-02-12T17:55:58.536Z,1.30
2023-02-12T17:58:25.203Z,1.00
2023-02-12T18:00:52.001Z,1.20
2023-02-12T18:03:18.863Z,1.20
2023-02-12T18:05:45.890Z,1.20
2023-02-12T18:08:12.776Z,1.00
2023-02-12T18:10:43.240Z,0.90
2023-02-12T18:13:09.934Z,0.70
2023-02-12T18:15:36.929Z,0.90
2023-02-12T18:18:03.721Z,0.50
2023-02-12T18:20:30.394Z,0.50
2023-02-12T18:22:57.122Z,0.60
2023-02-12T18:25:23.862Z,0.80
2023-02-12T18:27:50.517Z,0.80
2023-02-12T18:30:17.309Z,0.90
2023-02-12T18:32:43.976Z,0.60
2023-02-12T18:35:10.634Z,0.20
2023-02-12T18:37:37.464Z,0.40
2023-02-12T18:40:04.442Z,0.80
2023-02-12T18:42:33.325Z,1.00
2023-02-12T18:45:00.070Z,1.10
2023-02-12T18:47:26.919Z,0.80
2023-02-12T18:49:53.704Z,0.00
2023-02-12T18:52:20.567Z,-0.10
2023-02-12T18:54:47.449Z,-0.10
2023-02-12T18:57:14.355Z,0.10
2023-02-12T18:59:41.211Z,0.10
2023-02-12T19:02:08.480Z,0.10
2023-02-12T19:04:35.610Z,-0.30
2023-02-12T19:07:02.485Z,-0.70
2023-02-12T19:09:29.567Z,-0.60
2023-02-12T19:11:57.451Z,-0.50
2023-02-12T19:14:25.137Z,-0.40
2023-02-12T19:16:52.669Z,-0.50
2023-02-12T19:19:23.554Z,-0.50
2023-02-12T19:21:50.895Z,-0.70
2023-02-12T19:24:17.816Z,-0.70
2023-02-12T19:26:46.938Z,-0.90
2023-02-12T19:29:13.998Z,-0.80
2023-02-12T19:31:43.664Z,-0.90
2023-02-12T19:34:16.428Z,-0.80
2023-02-12T19:36:43.875Z,-0.80
2023-02-12T19:39:13.014Z,-0.70
2023-02-12T19:41:43.161Z,-0.70
2023-02-12T19:44:11.352Z,-0.60
2023-02-12T19:46:40.294Z,-0.60
2023-02-12T19:49:07.623Z,-0.70
2023-02-12T19:51:34.462Z,-0.70
2023-02-12T19:54:01.925Z,-0.70
2023-02-12T19:56:28.790Z,-0.90
2023-02-12T19:58:56.388Z,-0.80
2023-02-12T20:01:23.661Z,-0.70
2023-02-12T20:03:50.556Z,-0.70
2023-02-12T20:06:24.831Z,-0.50
2023-02-12T20:08:51.733Z,-0.40
2023-02-12T20:11:19.729Z,-0.50
2023-02-12T20:13:46.840Z,-1.00
2023-02-12T20:16:17.969Z,-1.10
2023-02-12T20:18:45.341Z,-1.00
2023-02-12T20:21:16.751Z,-0.80
2023-02-12T20:23:43.613Z,-1.00
2023-02-12T20:26:11.344Z,-1.00
2023-02-12T20:28:38.574Z,-1.10
2023-02-12T20:31:12.529Z,-1.20
2023-02-12T20:33:39.709Z,-1.10
2023-02-12T20:36:07.002Z,-1.20
2023-02-12T20:38:33.721Z,-1.20
2023-02-12T20:41:04.573Z,-1.50
2023-02-12T20:43:32.024Z,-1.70
2023-02-12T20:46:09.104Z,-1.40
2023-02-12T20:48:36.838Z,-1.30
2023-02-12T20:51:04.666Z,-1.60
2023-02-12T20:53:32.915Z,-1.60
2023-02-12T20:56:04.254Z,-1.40
2023-02-12T20:58:31.118Z,-1.50
2023-02-12T21:01:05.282Z,-1.70
2023-02-12T21:03:32.051Z,-1.70
2023-02-12T21:05:59.095Z,-1.80
2023-02-12T21:08:25.862Z,-1.50
2023-02-12T21:11:03.090Z,-1.70
2023-02-12T21:13:29.839Z,-1.80
2023-02-12T21:16:06.873Z,-1.70
2023-02-12T21:18:33.676Z,-1.60
2023-02-12T21:21:04.863Z,-1.60
2023-02-12T21:23:32.166Z,-1.70
2023-02-12T21:25:59.731Z,-1.80
2023-02-12T21:28:26.447Z,-1.70
2023-02-12T21:30:53.144Z,-1.80
2023-02-12T21:33:19.903Z,-1.70
2023-02-12T21:35:46.531Z,-1.60
2023-02-12T21:38:13.201Z,-1.40
2023-02-12T21:40:39.871Z,-1.40
2023-02-12T21:43:06.534Z,-1.70
2023-02-12T21:45:33.232Z,-1.60
2023-02-12T21:47:59.925Z,-1.80
2023-02-12T21:50:26.617Z,-1.80
2023-02-12T21:52:53.332Z,-1.70
2023-02-12T21:55:20.006Z,-1.80
2023-02-12T21:57:47.403Z,-1.80
2023-02-12T22:00:14.412Z,-1.60
2023-02-12T22:02:41.121Z,-1.50
2023-02-12T22:05:07.903Z,-1.70
2023-02-12T22:07:34.772Z,-2.20
2023-02-12T22:10:01.492Z,-2.00
2023-02-12T22:12:32.303Z,-1.90
2023-02-12T22:14:59.020Z,-2.20
2023-02-12T22:17:25.686Z,-2.10
2023-02-12T22:19:52.357Z,-2.00
2023-02-12T22:22:19.015Z,-2.10
2023-02-12T22:24:45.765Z,-2.00
2023-02-12T22:27:12.703Z,-1.90
2023-02-12T22:29:39.430Z,-2.00
2023-02-12T22:32:06.202Z,-2.00
2023-02-12T22:34:32.942Z,-2.00
2023-02-12T22:36:59.592Z,-2.10
2023-02-12T22:39:26.860Z,-2.00
2023-02-12T22:41:53.564Z,-2.30
2023-02-12T22:44:21.420Z,-2.30
2023-02-12T22:46:48.708Z,-2.10
2023-02-12T22:49:16.093Z,-2.20
2023-02-12T22:51:42.890Z,-2.30
2023-02-12T22:54:13.662Z,-2.40
2023-02-12T22:56:40.952Z,-2.50
2023-02-12T22:59:07.971Z,-2.40
2023-02-12T23:01:34.725Z,-2.30
2023-02-12T23:04:01.538Z,-2.20
2023-02-12T23:06:29.845Z,-2.00
2023-02-12T23:08:58.995Z,-2.20
2023-02-12T23:11:26.537Z,-2.20
2023-02-12T23:13:53.184Z,-2.20
2023-02-12T23:16:20.356Z,-2.40
2023-02-12T23:18:47.328Z,-2.50
2023-02-12T23:21:14.397Z,-2.30
2023-02-12T23:23:41.058Z,-2.30
2023-02-12T23:26:07.727Z,-2.60
2023-02-12T23:28:34.451Z,-2.40
2023-02-12T23:31:01.651Z,-2.30
2023-02-12T23:33:28.621Z,-2.40
2023-02-12T23:35:55.429Z,-2.60
2023-02-12T23:38:22.474Z,-2.40
2023-02-12T23:40:49.162Z,-2.50
2023-02-12T23:43:15.929Z,-2.50
2023-02-12T23:45:46.369Z,-2.70
2023-02-12T23:48:13.441Z,-2.50
2023-02-12T23:50:40.558Z,-2.50
2023-02-12T23:53:07.419Z,-2.60
2023-02-12T23:55:36.033Z,-2.50
2023-02-12T23:58:03.189Z,-2.50
